Time;durP1;ratioP1;P1;durP2;ratioP2;P2;SDS_P1;SDS_P2;PMS_P1;PMS_P2;Temp;Humidity;BMP_temperature;BMP_pressure;BME280_temperature;BME280_humidity;BME280_pressure;Samples;Min_cycle;Max_cycle;Signal;HPM_P1;HPM_P2
2022/03/15 00:01:04;;;;;;;;;8.50;7.25;;;;;13.08;45.60;101975.97;5062812;28;46326;-59
2022/03/15 00:03:30;;;;;;;;;8.00;6.25;;;;;13.09;45.42;101977.75;5062908;28;45228;-59
2022/03/15 00:05:55;;;;;;;;;9.75;8.75;;;;;13.06;45.46;101967.22;5061509;28;45241;-59
2022/03/15 00:08:21;;;;;;;;;13.25;11.25;;;;;13.08;45.52;101974.25;5062353;28;45228;-60
2022/03/15 00:10:48;;;;;;;;;12.50;10.00;;;;;13.07;45.44;101968.94;5060933;28;47252;-59
2022/03/15 00:13:13;;;;;;;;;10.50;8.75;;;;;13.09;45.45;101975.09;5061322;28;45487;-59
2022/03/15 00:15:41;;;;;;;;;10.25;8.00;;;;;13.08;45.60;101971.59;5062750;28;45293;-59
2022/03/15 00:18:07;;;;;;;;;10.75;7.75;;;;;13.09;45.29;101967.19;5062560;28;45384;-59
2022/03/15 00:20:33;;;;;;;;;9.00;6.75;;;;;13.08;45.70;101966.31;5062350;28;47151;-59
2022/03/15 00:23:00;;;;;;;;;7.50;7.00;;;;;13.08;45.40;101960.16;5062267;28;45394;-59
2022/03/15 00:25:26;;;;;;;;;7.00;6.75;;;;;13.09;45.63;101959.28;5061525;28;45348;-59
2022/03/15 00:27:52;;;;;;;;;7.00;5.75;;;;;13.09;45.53;101961.91;5044203;28;45287;-59
2022/03/15 00:30:19;;;;;;;;;7.00;6.00;;;;;13.08;45.58;101955.75;5062236;28;45221;-59
2022/03/15 00:32:44;;;;;;;;;6.25;5.00;;;;;13.06;45.81;101952.25;5060926;28;45926;-59
2022/03/15 00:35:16;;;;;;;;;8.00;6.50;;;;;13.08;45.84;101954.88;5061135;28;45304;-59
2022/03/15 00:37:42;;;;;;;;;6.75;6.00;;;;;13.07;45.79;101954.00;5061069;28;45348;-59
2022/03/15 00:40:08;;;;;;;;;5.00;5.00;;;;;13.06;45.51;101956.66;5069410;28;46598;-59
2022/03/15 00:42:33;;;;;;;;;8.00;6.75;;;;;13.07;45.86;101961.03;5062331;28;45303;-59
2022/03/15 00:45:01;;;;;;;;;6.25;5.75;;;;;13.08;45.45;101962.78;5061044;28;45654;-59
2022/03/15 00:47:27;;;;;;;;;6.00;5.00;;;;;13.06;45.77;101959.31;5061902;28;45431;-59
2022/03/15 00:49:53;;;;;;;;;4.00;4.00;;;;;13.07;45.76;101963.66;5060535;28;46181;-59
2022/03/15 00:52:18;;;;;;;;;7.50;6.00;;;;;13.06;45.45;101954.88;5062198;28;45261;-58
2022/03/15 00:54:43;;;;;;;;;6.25;6.25;;;;;13.05;45.61;101955.75;5062009;28;45320;-59
2022/03/15 00:57:10;;;;;;;;;6.75;6.00;;;;;13.06;45.67;101954.03;5061889;28;45246;-59
2022/03/15 00:59:35;;;;;;;;;6.25;5.25;;;;;13.06;45.60;101946.09;5061790;28;46013;-59
2022/03/15 01:02:01;;;;;;;;;6.00;4.00;;;;;13.07;45.68;101942.56;5060379;28;45368;-59
2022/03/15 01:04:27;;;;;;;;;5.00;5.00;;;;;13.08;45.68;101942.56;5062013;28;45230;-59
2022/03/15 01:06:52;;;;;;;;;6.25;4.75;;;;;13.08;45.59;101939.03;5061597;28;45292;-59
2022/03/15 01:09:18;;;;;;;;;5.25;4.75;;;;;13.09;45.83;101938.16;5059931;28;45384;-59
2022/03/15 01:11:43;;;;;;;;;6.25;6.25;;;;;13.09;45.93;101930.25;5060189;28;45186;-59
2022/03/15 01:14:09;;;;;;;;;5.50;5.00;;;;;13.09;46.01;101936.38;5061997;28;45319;-59
2022/03/15 01:16:34;;;;;;;;;7.00;4.25;;;;;13.10;45.95;101935.50;5061528;28;45277;-59
2022/03/15 01:19:00;;;;;;;;;6.50;6.50;;;;;13.09;45.74;101919.69;5061796;28;45314;-59
2022/03/15 01:21:26;;;;;;;;;5.50;5.50;;;;;13.10;45.91;101919.66;5061544;28;45268;-59
2022/03/15 01:23:53;;;;;;;;;5.25;5.25;;;;;13.10;45.62;101913.53;5059933;28;45328;-59
2022/03/15 01:26:18;;;;;;;;;4.00;3.00;;;;;13.10;46.02;101916.16;5061278;28;45558;-59
2022/03/15 01:28:44;;;;;;;;;7.50;6.00;;;;;13.10;46.02;101914.38;5061253;28;45445;-59
2022/03/15 01:31:11;;;;;;;;;5.50;5.50;;;;;13.11;46.19;101913.50;5060135;28;45881;-59
2022/03/15 01:33:37;;;;;;;;;7.75;7.75;;;;;13.12;45.92;101903.84;5061602;28;45258;-59
2022/03/15 01:36:02;;;;;;;;;7.25;6.25;;;;;13.12;46.13;101912.63;5042656;28;45319;-59
2022/03/15 01:38:28;;;;;;;;;6.50;6.25;;;;;13.12;46.15;101907.34;5065940;28;45339;-58
2022/03/15 01:40:53;;;;;;;;;8.75;7.25;;;;;13.12;46.11;101904.72;5063487;28;45417;-59
2022/03/15 01:43:18;;;;;;;;;7.00;6.25;;;;;13.13;46.21;101900.28;5060126;28;45247;-59
2022/03/15 01:45:44;;;;;;;;;9.00;6.00;;;;;13.11;46.26;101886.25;5061228;28;45505;-59
2022/03/15 01:48:09;;;;;;;;;8.00;7.00;;;;;13.15;46.06;101893.25;5061062;28;45261;-59
2022/03/15 01:50:36;;;;;;;;;6.00;6.00;;;;;13.15;46.19;101880.06;5059765;28;45331;-60
2022/03/15 01:53:02;;;;;;;;;6.50;6.50;;;;;13.15;46.42;101883.56;5061238;28;45303;-59
2022/03/15 01:55:28;;;;;;;;;11.00;8.50;;;;;13.15;46.52;101878.28;5060528;28;45430;-60
2022/03/15 01:57:54;;;;;;;;;7.50;7.50;;;;;13.16;46.59;101876.53;5060905;28;46498;-60
2022/03/15 02:00:20;;;;;;;;;9.00;6.00;;;;;13.15;46.45;101873.00;5060943;28;45159;-59
2022/03/15 02:02:46;;;;;;;;;11.25;8.00;;;;;13.17;46.70;101873.03;5061028;28;45276;-59
2022/03/15 02:05:12;;;;;;;;;9.50;7.25;;;;;13.16;46.42;101869.47;5060974;28;45251;-60
2022/03/15 02:07:38;;;;;;;;;5.50;5.00;;;;;13.17;46.50;101871.25;5060717;28;47129;-60
2022/03/15 02:10:06;;;;;;;;;9.00;8.25;;;;;13.15;46.54;101865.09;5060220;28;45335;-59
2022/03/15 02:12:32;;;;;;;;;7.50;7.00;;;;;13.17;46.62;101862.47;5043009;28;45336;-59
2022/03/15 02:15:01;;;;;;;;;7.00;7.00;;;;;13.16;46.58;101866.84;5060650;28;45406;-59
2022/03/15 02:17:27;;;;;;;;;7.25;7.25;;;;;13.14;46.72;101857.19;5059351;28;47462;-59
2022/03/15 02:19:53;;;;;;;;;12.75;7.75;;;;;13.16;46.69;101852.78;5060386;28;45497;-59
2022/03/15 02:22:19;;;;;;;;;9.00;7.00;;;;;13.16;47.01;101858.06;5060789;28;45164;-59
2022/03/15 02:24:45;;;;;;;;;8.50;8.50;;;;;13.16;46.70;101842.22;5060207;28;45427;-59
2022/03/15 02:27:11;;;;;;;;;8.00;8.00;;;;;13.13;47.15;101832.56;5050780;28;46046;-60
2022/03/15 02:29:36;;;;;;;;;7.00;7.00;;;;;13.13;47.15;101837.84;5060295;28;45398;-59
2022/03/15 02:32:02;;;;;;;;;4.25;4.00;;;;;13.14;46.94;101836.06;5059285;28;45448;-59
2022/03/15 02:34:27;;;;;;;;;7.00;7.00;;;;;13.13;47.01;101826.41;5060395;28;45307;-59
2022/03/15 02:36:53;;;;;;;;;9.25;8.00;;;;;13.11;47.16;101830.84;5060389;28;47313;-59
2022/03/15 02:39:22;;;;;;;;;7.75;6.50;;;;;13.11;47.32;101820.28;5066423;28;45425;-60
2022/03/15 02:41:47;;;;;;;;;12.50;9.75;;;;;13.10;47.25;101823.81;5042503;28;45307;-59
2022/03/15 02:44:13;;;;;;;;;10.50;8.00;;;;;13.10;47.25;101823.81;5060211;28;45497;-59
2022/03/15 02:46:42;;;;;;;;;11.25;8.75;;;;;13.07;47.50;101823.81;5060344;28;45307;-59
2022/03/15 02:49:09;;;;;;;;;8.25;7.75;;;;;13.05;47.60;101813.28;5059729;28;45361;-60
2022/03/15 02:51:35;;;;;;;;;11.50;11.00;;;;;13.03;47.67;101811.53;5060308;28;45439;-59
2022/03/15 02:54:02;;;;;;;;;8.75;6.50;;;;;13.01;47.58;101812.41;5058341;28;45478;-59
2022/03/15 02:56:28;;;;;;;;;11.00;9.75;;;;;13.00;48.08;101802.78;5058751;28;45260;-59
2022/03/15 02:58:53;;;;;;;;;8.00;7.25;;;;;13.00;47.72;101801.88;5059927;28;45248;-59
2022/03/15 03:01:20;;;;;;;;;11.50;8.50;;;;;12.99;48.05;101798.38;5060234;28;45705;-59
2022/03/15 03:03:45;;;;;;;;;9.25;9.25;;;;;12.99;48.19;101798.38;5059881;28;45541;-60
2022/03/15 03:06:11;;;;;;;;;11.50;10.00;;;;;12.98;47.92;101791.34;5059937;28;46297;-60
2022/03/15 03:08:36;;;;;;;;;12.25;10.25;;;;;12.96;48.47;101793.09;5059383;28;45299;-60
2022/03/15 03:11:03;;;;;;;;;8.75;8.75;;;;;12.95;48.49;101788.72;5059935;28;45444;-60
2022/03/15 03:13:30;;;;;;;;;10.25;8.25;;;;;12.94;48.58;101800.19;5059809;28;45494;-59
2022/03/15 03:15:57;;;;;;;;;9.00;8.00;;;;;12.90;48.49;101779.94;5059874;28;45230;-60
2022/03/15 03:18:31;;;;;;;;;9.00;9.00;;;;;12.91;48.72;101779.06;5059722;28;45223;-60
2022/03/15 03:20:57;;;;;;;;;9.75;9.25;;;;;12.89;48.43;101775.56;5059794;28;45240;-60
2022/03/15 03:23:22;;;;;;;;;10.50;9.00;;;;;12.88;49.03;101768.56;5059547;28;45228;-59
2022/03/15 03:25:48;;;;;;;;;8.75;8.75;;;;;12.88;48.69;101776.47;5058055;28;46485;-64
2022/03/15 03:28:14;;;;;;;;;11.75;10.25;;;;;12.84;48.80;101772.09;5058424;28;45279;-60
2022/03/15 03:30:47;;;;;;;;;10.50;10.50;;;;;12.86;48.81;101778.25;5059858;28;45263;-70
2022/03/15 03:33:14;;;;;;;;;14.00;11.00;;;;;12.85;48.91;101779.13;5058595;28;45450;-60
2022/03/15 03:35:41;;;;;;;;;15.25;11.25;;;;;12.83;49.13;101784.41;5058017;28;47214;-60
2022/03/15 03:38:06;;;;;;;;;12.00;9.50;;;;;12.83;49.09;101783.56;5061959;28;45307;-60
2022/03/15 03:40:32;;;;;;;;;6.00;6.00;;;;;12.83;49.21;101787.06;5065717;28;45225;-59
2022/03/15 03:42:58;;;;;;;;;12.00;10.00;;;;;12.83;49.35;101783.56;5059711;28;45476;-60
2022/03/15 03:45:23;;;;;;;;;6.25;4.75;;;;;12.81;49.42;101780.91;5059282;28;45263;-60
2022/03/15 03:47:48;;;;;;;;;11.25;9.75;;;;;12.83;49.57;101783.56;5041480;28;45362;-60
2022/03/15 03:50:14;;;;;;;;;9.25;9.25;;;;;12.82;49.30;101776.50;5059588;28;45333;-60
2022/03/15 03:52:39;;;;;;;;;11.75;10.50;;;;;12.82;49.75;101773.88;5059563;28;45228;-60
2022/03/15 03:55:05;;;;;;;;;11.50;10.25;;;;;12.81;49.70;101777.41;5057564;28;47942;-60
2022/03/15 03:57:31;;;;;;;;;9.00;9.00;;;;;12.82;49.68;101772.09;5059492;28;45205;-60
2022/03/15 03:59:56;;;;;;;;;11.00;10.00;;;;;12.81;49.67;101772.13;5059998;28;45442;-59
2022/03/15 04:02:22;;;;;;;;;11.50;9.00;;;;;12.81;49.69;101783.53;5061685;28;45398;-60
2022/03/15 04:04:47;;;;;;;;;12.25;10.25;;;;;12.79;49.77;101777.41;5062783;28;45347;-60
2022/03/15 04:07:13;;;;;;;;;11.50;10.75;;;;;12.81;49.76;101761.56;5062690;28;45403;-59
2022/03/15 04:09:39;;;;;;;;;11.00;9.00;;;;;12.81;50.04;101761.56;5062276;28;45648;-60
2022/03/15 04:12:05;;;;;;;;;12.00;10.50;;;;;12.82;49.73;101758.06;5062917;28;45439;-59
2022/03/15 04:14:31;;;;;;;;;12.00;10.25;;;;;12.81;50.02;101756.28;5062502;28;47119;-59
2022/03/15 04:16:57;;;;;;;;;13.00;9.75;;;;;12.81;50.28;101757.16;5062603;28;45405;-60
2022/03/15 04:19:22;;;;;;;;;8.75;8.75;;;;;12.82;50.20;101752.78;5062614;28;45245;-60
2022/03/15 04:21:48;;;;;;;;;7.00;7.00;;;;;12.82;50.09;101743.09;5062659;28;45438;-60
2022/03/15 04:24:14;;;;;;;;;10.25;10.00;;;;;12.85;50.32;101734.28;5061085;28;45757;-59
2022/03/15 04:26:41;;;;;;;;;10.00;10.00;;;;;12.84;50.43;101741.31;5062318;28;45228;-59
2022/03/15 04:29:06;;;;;;;;;12.00;10.50;;;;;12.86;50.37;101738.66;5061382;28;45485;-59
2022/03/15 04:31:32;;;;;;;;;13.25;10.00;;;;;12.86;50.36;101743.94;5062340;28;45170;-59
2022/03/15 04:33:57;;;;;;;;;8.25;8.25;;;;;12.87;50.58;101750.97;5062374;28;45252;-59
2022/03/15 04:36:22;;;;;;;;;4.50;4.50;;;;;12.87;50.44;101740.44;5062480;28;45168;-59
2022/03/15 04:38:48;;;;;;;;;8.00;8.00;;;;;12.88;50.65;101743.94;5070519;28;45392;-59
2022/03/15 04:41:13;;;;;;;;;7.25;7.25;;;;;12.84;50.50;101740.44;5062384;28;45204;-59
2022/03/15 04:43:39;;;;;;;;;9.50;9.25;;;;;12.87;50.43;101743.06;5062246;28;46138;-59
2022/03/15 04:46:04;;;;;;;;;9.75;9.25;;;;;12.87;50.53;101737.78;5062243;28;45492;-60
2022/03/15 04:48:30;;;;;;;;;9.00;7.25;;;;;12.90;50.59;101739.53;5062324;28;45292;-59
2022/03/15 04:50:55;;;;;;;;;12.00;9.25;;;;;12.91;50.59;101741.28;5060693;28;45611;-59
2022/03/15 04:53:21;;;;;;;;;9.25;9.25;;;;;12.90;50.81;101732.47;5061779;28;45625;-59
2022/03/15 04:55:46;;;;;;;;;11.00;8.75;;;;;12.90;50.75;101735.09;5061796;28;45324;-59
2022/03/15 04:58:12;;;;;;;;;6.50;6.00;;;;;12.90;50.60;101732.47;5062170;28;45241;-59
2022/03/15 05:00:38;;;;;;;;;11.00;11.00;;;;;12.91;51.02;101733.38;5061767;28;45265;-59
2022/03/15 05:03:03;;;;;;;;;13.50;10.00;;;;;12.90;50.67;101732.47;5060580;28;46053;-58
2022/03/15 05:05:28;;;;;;;;;10.00;9.00;;;;;12.94;50.74;101725.41;5061691;28;45394;-59
2022/03/15 05:07:54;;;;;;;;;11.25;9.75;;;;;12.92;50.95;101724.56;5061688;28;45246;-59
2022/03/15 05:13:03;;;;;;;;;8.50;8.25;;;;;12.94;51.01;101720.13;5061920;28;45765;-59
2022/03/15 05:15:29;;;;;;;;;10.00;8.00;;;;;12.93;50.81;101706.09;5061770;28;45442;-60
2022/03/15 05:17:54;;;;;;;;;9.25;8.00;;;;;12.96;50.87;101708.69;5061695;28;45308;-59
2022/03/15 05:20:20;;;;;;;;;29.75;27.25;;;;;12.95;51.24;101714.84;5061852;28;45151;-59
2022/03/15 05:22:46;;;;;;;;;11.00;9.50;;;;;12.98;51.04;101722.75;5061418;28;46066;-59
2022/03/15 05:25:13;;;;;;;;;11.75;10.00;;;;;12.99;51.18;101721.84;5061153;28;45273;-59
2022/03/15 05:27:40;;;;;;;;;8.75;8.50;;;;;13.00;51.29;101715.69;5061478;28;45306;-59
2022/03/15 05:30:09;;;;;;;;;8.50;8.50;;;;;12.98;50.97;101709.56;5061715;28;45364;-59
2022/03/15 05:32:34;;;;;;;;;10.25;9.00;;;;;12.97;51.49;101709.56;5059917;28;45294;-59
2022/03/15 05:35:01;;;;;;;;;9.25;8.25;;;;;13.00;51.07;101710.41;5061579;28;45387;-59
2022/03/15 05:37:27;;;;;;;;;10.00;10.00;;;;;13.01;51.09;101717.44;5061425;28;45230;-59
2022/03/15 05:39:52;;;;;;;;;12.25;11.00;;;;;12.95;51.21;101709.56;5068566;28;45800;-59
2022/03/15 05:42:18;;;;;;;;;8.75;8.75;;;;;13.04;51.52;101726.22;5061109;28;46024;-59
2022/03/15 05:44:43;;;;;;;;;9.50;9.00;;;;;13.03;51.00;101729.72;5061300;28;45239;-59
2022/03/15 05:47:09;;;;;;;;;8.25;8.25;;;;;13.03;51.50;101714.78;5061231;28;45222;-59
2022/03/15 05:49:34;;;;;;;;;10.00;10.00;;;;;13.05;51.52;101728.84;5061276;28;45416;-59
2022/03/15 05:52:00;;;;;;;;;12.00;10.75;;;;;13.05;51.26;101731.47;5060861;28;45327;-59
2022/03/15 05:54:25;;;;;;;;;9.00;8.00;;;;;13.05;51.22;101733.25;5060909;28;45361;-59
2022/03/15 05:56:51;;;;;;;;;9.25;9.25;;;;;13.06;51.66;101733.22;5061115;28;45332;-59
2022/03/15 05:59:16;;;;;;;;;9.00;9.00;;;;;13.07;51.48;101736.72;5060961;28;45263;-59
2022/03/15 06:01:42;;;;;;;;;11.50;11.50;;;;;13.07;51.74;101736.72;5060582;28;45307;-59
2022/03/15 06:04:09;;;;;;;;;12.00;12.00;;;;;13.08;51.67;101738.47;5059700;28;45398;-59
2022/03/15 06:06:34;;;;;;;;;8.50;8.50;;;;;13.07;51.93;101736.72;5061127;28;45242;-59
2022/03/15 06:09:00;;;;;;;;;10.25;10.25;;;;;13.09;52.02;101734.97;5060283;28;45175;-59
2022/03/15 06:11:25;;;;;;;;;10.00;10.00;;;;;13.08;51.98;101736.72;5059233;28;47912;-58
2022/03/15 06:13:51;;;;;;;;;9.50;9.50;;;;;13.08;51.58;101730.56;5061002;28;45257;-59
2022/03/15 06:16:16;;;;;;;;;12.00;12.00;;;;;13.08;51.96;101736.72;5059577;28;45417;-58
2022/03/15 06:18:41;;;;;;;;;10.00;10.00;;;;;13.09;51.62;101745.50;5061072;28;45196;-59
2022/03/15 06:21:07;;;;;;;;;9.50;9.25;;;;;13.08;51.65;101735.84;5060362;28;46120;-59
2022/03/15 06:23:32;;;;;;;;;11.50;10.25;;;;;13.09;51.92;101734.97;5059908;28;45225;-58
2022/03/15 06:25:58;;;;;;;;;15.50;14.25;;;;;13.08;52.09;101743.75;5060453;28;45171;-60
2022/03/15 06:28:23;;;;;;;;;11.00;11.00;;;;;13.09;52.00;101746.38;5060665;28;45141;-60
2022/03/15 06:30:48;;;;;;;;;12.75;11.25;;;;;13.09;52.16;101745.50;5060249;28;46068;-59
2022/03/15 06:33:14;;;;;;;;;15.00;12.75;;;;;13.09;51.76;101734.97;5060710;28;45157;-59
2022/03/15 06:35:39;;;;;;;;;14.00;13.00;;;;;13.10;51.76;101739.34;5060497;28;45319;-59
2022/03/15 06:38:05;;;;;;;;;13.25;12.25;;;;;13.07;52.10;101726.16;5062856;28;45328;-58
2022/03/15 06:40:33;;;;;;;;;12.75;12.25;;;;;13.09;52.16;101743.75;5066597;28;45558;-59
2022/03/15 06:42:59;;;;;;;;;12.50;12.25;;;;;13.10;52.20;101737.56;5046220;28;45360;-59
2022/03/15 06:45:25;;;;;;;;;16.00;14.75;;;;;13.09;52.11;101733.19;5060282;28;45490;-59
2022/03/15 06:47:51;;;;;;;;;19.75;15.50;;;;;13.10;52.05;101737.56;5060476;28;45300;-59
2022/03/15 06:50:16;;;;;;;;;57.75;45.25;;;;;13.09;52.29;101741.09;5059848;28;45275;-59
2022/03/15 06:52:44;;;;;;;;;13.00;13.00;;;;;13.10;52.41;101742.84;5060481;28;45153;-59
2022/03/15 06:55:11;;;;;;;;;14.75;13.50;;;;;13.10;52.04;101742.00;5059823;28;45372;-59
2022/03/15 06:57:37;;;;;;;;;12.75;11.00;;;;;13.09;52.19;101738.47;5060228;28;45331;-59
2022/03/15 07:00:12;;;;;;;;;18.50;15.25;;;;;13.10;51.93;101734.94;5059637;28;45402;-59
2022/03/15 07:02:37;;;;;;;;;15.50;15.50;;;;;13.10;52.10;101742.84;5060009;28;45268;-59
2022/03/15 07:05:03;;;;;;;;;18.00;16.00;;;;;13.10;52.19;101744.63;5058807;28;45289;-59
2022/03/15 07:07:29;;;;;;;;;13.50;13.00;;;;;13.09;52.27;101734.97;5058678;28;45627;-59
2022/03/15 07:09:55;;;;;;;;;17.00;16.00;;;;;13.11;52.56;101720.00;5059092;28;45315;-59
2022/03/15 07:12:21;;;;;;;;;19.50;17.75;;;;;13.10;52.88;101726.16;5059914;28;45248;-58
2022/03/15 07:14:47;;;;;;;;;19.75;16.50;;;;;13.11;52.53;101727.91;5058624;28;45437;-59
2022/03/15 07:17:15;;;;;;;;;20.75;18.25;;;;;13.10;52.53;101739.34;5060011;28;45406;-59
2022/03/15 07:19:41;;;;;;;;;18.00;16.00;;;;;13.10;52.80;101737.56;5059351;28;45294;-58
2022/03/15 07:22:06;;;;;;;;;20.25;18.00;;;;;13.09;52.74;101740.25;5058517;28;46056;-58
2022/03/15 07:24:33;;;;;;;;;20.75;18.00;;;;;13.09;52.80;101740.25;5058118;28;45311;-59
2022/03/15 07:26:59;;;;;;;;;20.25;16.50;;;;;13.09;52.46;101734.97;5059531;28;45555;-59
2022/03/15 07:29:24;;;;;;;;;16.50;15.25;;;;;13.09;52.88;101751.66;5059536;28;46545;-59
2022/03/15 07:31:49;;;;;;;;;19.00;18.25;;;;;13.09;52.79;101753.44;5059711;28;45263;-59
2022/03/15 07:34:15;;;;;;;;;16.25;15.00;;;;;13.08;52.82;101749.03;5058460;28;45264;-59
2022/03/15 07:36:40;;;;;;;;;25.50;23.50;;;;;13.10;52.83;101744.63;5061686;28;45537;-59
2022/03/15 07:39:06;;;;;;;;;17.50;16.50;;;;;13.09;52.94;101741.09;5069194;28;45316;-59
2022/03/15 07:41:32;;;;;;;;;17.25;16.75;;;;;13.09;52.57;101746.38;5063130;28;45170;-59
2022/03/15 07:43:58;;;;;;;;;18.00;18.00;;;;;13.07;52.91;101748.19;5063334;28;45296;-59
2022/03/15 07:46:24;;;;;;;;;17.50;17.25;;;;;13.09;53.06;101740.25;5061847;28;45626;-59
2022/03/15 07:48:49;;;;;;;;;23.75;22.00;;;;;13.08;53.00;101731.47;5061326;28;46025;-59
2022/03/15 07:51:15;;;;;;;;;20.75;19.50;;;;;13.09;52.83;101727.03;5062863;28;45310;-59
2022/03/15 07:53:40;;;;;;;;;18.75;17.50;;;;;13.07;52.99;101726.16;5062757;28;45385;-59
2022/03/15 07:56:06;;;;;;;;;25.00;23.25;;;;;13.09;52.87;101737.59;5062770;28;45316;-59
2022/03/15 07:58:31;;;;;;;;;17.75;17.25;;;;;13.10;53.23;101737.56;5062639;28;46204;-59
2022/03/15 08:00:57;;;;;;;;;21.00;19.75;;;;;13.10;52.84;101736.72;5062565;28;45315;-59
2022/03/15 08:03:25;;;;;;;;;18.25;17.25;;;;;13.11;52.90;101725.28;5062757;28;45396;-58
2022/03/15 08:05:51;;;;;;;;;22.25;20.25;;;;;13.09;53.29;101719.13;5062737;28;45380;-59
2022/03/15 08:08:17;;;;;;;;;17.25;16.25;;;;;13.11;53.42;101725.28;5061829;28;46353;-59
2022/03/15 08:10:45;;;;;;;;;18.25;17.50;;;;;13.12;53.18;101724.41;5062240;28;45259;-59
2022/03/15 08:13:11;;;;;;;;;17.75;16.75;;;;;13.13;53.08;101710.28;5062544;28;45365;-58
2022/03/15 08:15:37;;;;;;;;;15.00;15.00;;;;;13.15;53.05;101719.94;5044497;28;45693;-58
2022/03/15 08:18:03;;;;;;;;;18.00;18.00;;;;;13.15;52.95;101725.22;5062274;28;45311;-59
2022/03/15 08:20:41;;;;;;;;;17.00;16.25;;;;;13.16;53.52;101729.59;5062615;28;45415;-58
2022/03/15 08:23:10;;;;;;;;;18.25;17.75;;;;;13.20;53.15;101733.09;5061039;28;45271;-58
2022/03/15 08:25:36;;;;;;;;;19.25;17.50;;;;;13.21;53.45;101724.28;5062070;28;45567;-58
2022/03/15 08:28:02;;;;;;;;;21.50;19.75;;;;;13.22;53.42;101722.50;5062033;28;45456;-59
2022/03/15 08:30:28;;;;;;;;;20.75;18.50;;;;;13.23;53.50;101719.88;5062140;28;45371;-58
2022/03/15 08:32:54;;;;;;;;;22.75;17.75;;;;;13.25;53.21;101725.16;5062147;28;45293;-58
2022/03/15 08:35:21;;;;;;;;;16.75;16.00;;;;;13.27;53.40;101716.31;5060834;28;45198;-58
2022/03/15 08:37:50;;;;;;;;;21.25;20.00;;;;;13.27;53.53;101713.69;5062206;28;45579;-58
2022/03/15 08:40:16;;;;;;;;;17.25;17.25;;;;;13.28;53.53;101726.00;5052846;28;45427;-58
2022/03/15 08:42:42;;;;;;;;;19.75;17.25;;;;;13.28;53.39;101735.66;5061973;28;45341;-58
2022/03/15 08:45:10;;;;;;;;;20.25;17.25;;;;;13.30;53.31;101739.16;5061982;28;45418;-58
2022/03/15 08:47:36;;;;;;;;;18.50;18.50;;;;;13.32;53.57;101745.31;5061329;28;47142;-58
2022/03/15 08:50:02;;;;;;;;;20.25;18.25;;;;;13.33;53.32;101745.31;5061972;28;45255;-58
2022/03/15 08:52:27;;;;;;;;;21.25;17.75;;;;;13.35;53.35;101742.63;5061810;28;45336;-59
2022/03/15 08:54:53;;;;;;;;;18.00;17.50;;;;;13.30;53.83;101732.13;5061680;28;45406;-58
2022/03/15 08:57:18;;;;;;;;;17.25;17.25;;;;;13.38;53.43;101741.75;5060401;28;48335;-59
2022/03/15 08:59:43;;;;;;;;;19.25;17.50;;;;;13.38;53.88;101752.31;5060472;28;45654;-59
2022/03/15 09:02:12;;;;;;;;;19.00;18.50;;;;;13.40;53.48;101753.19;5061886;28;45165;-58
2022/03/15 09:04:38;;;;;;;;;20.00;19.25;;;;;13.41;53.71;101758.44;5061999;28;45519;-58
2022/03/15 09:07:04;;;;;;;;;22.00;20.75;;;;;13.42;53.58;101756.69;5061528;28;46210;-58
2022/03/15 09:09:29;;;;;;;;;21.75;20.25;;;;;13.43;53.31;101750.50;5061138;28;45280;-58
2022/03/15 09:11:54;;;;;;;;;20.75;20.00;;;;;13.43;53.54;101745.22;5060544;28;45229;-58
2022/03/15 09:14:20;;;;;;;;;21.00;20.75;;;;;13.43;53.49;101740.84;5061777;28;45532;-58
2022/03/15 09:16:45;;;;;;;;;24.25;21.75;;;;;13.43;53.62;101734.66;5061551;28;45253;-58
2022/03/15 09:19:11;;;;;;;;;28.25;24.50;;;;;13.46;53.57;101747.84;5061611;28;45313;-58
2022/03/15 09:21:37;;;;;;;;;21.25;21.25;;;;;13.46;53.52;101758.41;5061481;28;45249;-58
2022/03/15 09:24:03;;;;;;;;;20.25;19.25;;;;;13.45;53.75;101759.31;5061286;28;45522;-58
2022/03/15 09:26:29;;;;;;;;;28.25;24.50;;;;;13.46;53.54;101756.63;5061281;28;46046;-58
2022/03/15 09:28:54;;;;;;;;;21.25;20.00;;;;;13.46;53.92;101755.78;5060106;28;45216;-58
2022/03/15 09:31:20;;;;;;;;;24.75;23.50;;;;;13.47;53.91;101762.78;5061593;28;45374;-58
2022/03/15 09:33:46;;;;;;;;;28.00;28.00;;;;;13.47;53.99;101757.50;5061369;28;45295;-58
2022/03/15 09:36:13;;;;;;;;;31.00;27.00;;;;;13.48;54.04;101756.63;5061405;28;45346;-58
2022/03/15 09:38:40;;;;;;;;;27.00;24.00;;;;;13.48;53.85;101748.69;5067951;28;45318;-58
2022/03/15 09:41:06;;;;;;;;;28.50;27.25;;;;;13.46;53.77;101745.22;5063007;28;45282;-58
2022/03/15 09:43:37;;;;;;;;;28.00;25.00;;;;;13.49;53.97;101753.09;5061177;28;45360;-58
2022/03/15 09:46:08;;;;;;;;;26.50;26.00;;;;;13.48;54.08;101748.69;5061080;28;46335;-58
2022/03/15 09:48:34;;;;;;;;;25.00;24.00;;;;;13.48;53.72;101743.41;5059761;28;45787;-58
2022/03/15 09:51:04;;;;;;;;;29.75;28.00;;;;;13.49;54.00;101740.75;5060975;28;45377;-58
2022/03/15 09:53:32;;;;;;;;;32.25;30.00;;;;;13.49;53.93;101738.09;5060722;28;45251;-58
2022/03/15 09:55:57;;;;;;;;;29.75;25.50;;;;;13.49;53.89;101735.47;5059607;28;47264;-58
2022/03/15 09:58:23;;;;;;;;;23.75;23.75;;;;;13.52;54.04;101728.41;5058411;28;45308;-58
2022/03/15 10:00:52;;;;;;;;;28.75;26.00;;;;;13.51;53.81;101724.91;5061188;28;45194;-59
2022/03/15 10:03:19;;;;;;;;;15.50;15.50;;;;;13.52;53.93;101726.66;5060782;28;45314;-59
2022/03/15 10:05:45;;;;;;;;;26.75;26.25;;;;;13.54;54.20;101726.66;5060916;28;46405;-59
2022/03/15 10:08:13;;;;;;;;;26.75;25.50;;;;;13.54;54.41;101727.50;5060085;28;45318;-59
2022/03/15 10:10:38;;;;;;;;;31.50;26.50;;;;;13.56;54.45;101725.75;5060951;28;45267;-59
2022/03/15 10:13:04;;;;;;;;;31.00;28.25;;;;;13.58;54.21;101720.44;5060552;28;45450;-59
2022/03/15 10:15:29;;;;;;;;;27.75;26.00;;;;;13.58;54.50;101723.94;5059486;28;47938;-59
2022/03/15 10:17:56;;;;;;;;;28.00;26.00;;;;;13.59;54.06;101722.19;5060664;28;45364;-59
2022/03/15 10:20:31;;;;;;;;;31.50;30.00;;;;;13.61;54.48;101717.75;5060731;28;45269;-59
2022/03/15 10:23:02;;;;;;;;;29.00;26.25;;;;;13.62;53.99;101709.81;5059263;28;45414;-59
2022/03/15 10:25:30;;;;;;;;;26.50;24.25;;;;;13.62;53.99;101707.19;5058845;28;46964;-58
2022/03/15 10:27:58;;;;;;;;;28.25;27.25;;;;;13.64;54.08;101704.53;5060083;28;45272;-59
2022/03/15 10:30:25;;;;;;;;;28.00;26.50;;;;;13.65;53.98;101719.47;5059356;28;45299;-59
2022/03/15 10:32:51;;;;;;;;;20.75;17.25;;;;;13.64;54.36;101718.59;5060218;28;45535;-59
2022/03/15 10:35:19;;;;;;;;;26.75;25.00;;;;;13.67;54.57;101717.69;5060280;28;46137;-59
2022/03/15 10:37:44;;;;;;;;;30.25;27.00;;;;;13.65;54.31;101708.91;5060129;28;45405;-59
2022/03/15 10:40:11;;;;;;;;;28.25;26.50;;;;;13.69;54.29;101707.13;5068880;28;45379;-59
2022/03/15 10:42:41;;;;;;;;;25.00;24.25;;;;;13.70;54.70;101714.13;5060135;28;45366;-59
2022/03/15 10:45:15;;;;;;;;;26.75;25.50;;;;;13.69;54.10;101707.97;5060018;28;47117;-59
2022/03/15 10:47:52;;;;;;;;;26.25;25.00;;;;;13.69;54.30;101715.03;5060129;28;45269;-59
2022/03/15 10:50:18;;;;;;;;;25.50;21.00;;;;;13.69;54.22;101709.75;5075662;27;45293;-59
2022/03/15 10:52:45;;;;;;;;;28.00;26.00;;;;;13.69;54.53;101704.47;5060278;28;45261;-59
2022/03/15 10:55:18;;;;;;;;;30.25;27.25;;;;;13.70;54.14;101711.47;5058043;28;48139;-59
2022/03/15 10:57:53;;;;;;;;;28.50;27.25;;;;;13.69;54.14;101705.34;5060243;28;45314;-59
2022/03/15 11:00:23;;;;;;;;;26.75;26.25;;;;;13.69;54.19;101699.19;5059985;28;45246;-59
2022/03/15 11:02:50;;;;;;;;;27.00;25.50;;;;;13.70;54.24;101704.44;5059866;28;45319;-59
2022/03/15 11:05:29;;;;;;;;;28.25;27.25;;;;;13.67;54.54;101687.75;5059676;28;45517;-58
2022/03/15 11:07:56;;;;;;;;;28.50;26.00;;;;;13.71;54.47;101692.09;5059489;28;45309;-59
2022/03/15 11:10:22;;;;;;;;;32.50;23.75;;;;;13.70;54.54;101687.72;5059219;28;45248;-59
2022/03/15 11:13:02;;;;;;;;;28.50;28.00;;;;;13.72;54.35;101678.00;5059748;28;45350;-61